AUA27 LOWW-LOWI
Flight info
| Callsign | AUA27 |
|---|---|
| Flight time | 0h 37m |
| Altitude | 30000 |
| Route | SOVIL1C/29 SOVIL DCT SITNI DCT BAGSI DCT NANIT NANIT2A |
| Aircraft | A20N/M-SDE2E3FGHIRWXY/LB1 |
Departure
| Time | 2026-05-07 14:28 |
|---|---|
| Airport | Vienna International Airport (LOWW) |
Arrival
| Time | 2026-05-07 15:05 |
|---|---|
| Airport | Innsbruck Airport (LOWI) |
| Time | Latitude | Longitude | Altitude | Speed | Heading |
|---|---|---|---|---|---|
| 2026-05-07 14:21 | 48.11738 | 16.56306 | 617 ft | 1 kts | 217° |
| 2026-05-07 14:21 | 48.11705 | 16.56278 | 614 ft | 11 kts | 207° |
| 2026-05-07 14:22 | 48.11607 | 16.56194 | 609 ft | 9 kts | 203° |
| 2026-05-07 14:22 | 48.11569 | 16.56200 | 616 ft | 9 kts | 136° |
| 2026-05-07 14:22 | 48.11532 | 16.56288 | 611 ft | 12 kts | 117° |
| 2026-05-07 14:22 | 48.11489 | 16.56413 | 609 ft | 15 kts | 115° |
| 2026-05-07 14:23 | 48.11447 | 16.56551 | 612 ft | 10 kts | 105° |
| 2026-05-07 14:23 | 48.11416 | 16.56646 | 612 ft | 12 kts | 118° |
| 2026-05-07 14:23 | 48.11381 | 16.56749 | 618 ft | 10 kts | 116° |
| 2026-05-07 14:24 | 48.11359 | 16.56817 | 618 ft | 12 kts | 116° |
| 2026-05-07 14:24 | 48.11317 | 16.56945 | 612 ft | 16 kts | 117° |
| 2026-05-07 14:24 | 48.11264 | 16.57104 | 616 ft | 18 kts | 116° |
| 2026-05-07 14:25 | 48.11206 | 16.57280 | 612 ft | 20 kts | 115° |
| 2026-05-07 14:25 | 48.11150 | 16.57451 | 618 ft | 16 kts | 117° |
| 2026-05-07 14:25 | 48.11099 | 16.57605 | 616 ft | 12 kts | 115° |
| 2026-05-07 14:25 | 48.11029 | 16.57636 | 609 ft | 8 kts | 205° |
| 2026-05-07 14:26 | 48.11020 | 16.57630 | 618 ft | 0 kts | 206° |
| 2026-05-07 14:26 | 48.10997 | 16.57613 | 609 ft | 8 kts | 206° |
| 2026-05-07 14:26 | 48.10930 | 16.57556 | 613 ft | 10 kts | 226° |
| 2026-05-07 14:26 | 48.10933 | 16.57482 | 614 ft | 0 kts | 295° |
| 2026-05-07 14:27 | 48.10933 | 16.57481 | 614 ft | 0 kts | 295° |
| 2026-05-07 14:27 | 48.10936 | 16.57471 | 617 ft | 3 kts | 294° |
| 2026-05-07 14:27 | 48.11011 | 16.57238 | 614 ft | 68 kts | 297° |
| 2026-05-07 14:28 | 48.11342 | 16.56207 | 616 ft | 147 kts | 296° |
| 2026-05-07 14:28 | 48.11877 | 16.54678 | 1144 ft | 169 kts | 295° |
| 2026-05-07 14:28 | 48.12325 | 16.53051 | 2140 ft | 170 kts | 275° |
| 2026-05-07 14:28 | 48.12161 | 16.51327 | 2946 ft | 173 kts | 241° |
| 2026-05-07 14:29 | 48.11531 | 16.49722 | 3538 ft | 192 kts | 244° |
| 2026-05-07 14:29 | 48.11228 | 16.47657 | 4105 ft | 214 kts | 261° |
| 2026-05-07 14:29 | 48.11071 | 16.45350 | 4657 ft | 234 kts | 264° |
| 2026-05-07 14:29 | 48.10945 | 16.42839 | 5070 ft | 245 kts | 265° |
| 2026-05-07 14:30 | 48.10825 | 16.40275 | 5019 ft | 247 kts | 265° |
| 2026-05-07 14:30 | 48.10697 | 16.37728 | 4883 ft | 246 kts | 265° |
| 2026-05-07 14:30 | 48.10559 | 16.35145 | 4909 ft | 255 kts | 265° |
| 2026-05-07 14:30 | 48.10407 | 16.32413 | 5371 ft | 269 kts | 265° |
| 2026-05-07 14:31 | 48.10249 | 16.29638 | 6523 ft | 268 kts | 265° |
| 2026-05-07 14:31 | 48.10090 | 16.26846 | 7603 ft | 270 kts | 265° |
| 2026-05-07 14:31 | 48.09932 | 16.24068 | 8605 ft | 274 kts | 264° |
| 2026-05-07 14:31 | 48.09769 | 16.21207 | 9658 ft | 278 kts | 264° |
| 2026-05-07 14:32 | 48.09603 | 16.18301 | 10527 ft | 287 kts | 264° |
| 2026-05-07 14:32 | 48.09424 | 16.15208 | 10946 ft | 310 kts | 264° |
| 2026-05-07 14:32 | 48.09229 | 16.11885 | 11392 ft | 329 kts | 264° |
| 2026-05-07 14:32 | 48.09028 | 16.08448 | 12265 ft | 333 kts | 264° |
| 2026-05-07 14:33 | 48.08825 | 16.04982 | 13185 ft | 336 kts | 264° |
| 2026-05-07 14:33 | 48.08619 | 16.01480 | 14053 ft | 340 kts | 263° |
| 2026-05-07 14:33 | 48.08413 | 15.97992 | 14831 ft | 343 kts | 263° |
| 2026-05-07 14:33 | 48.08202 | 15.94436 | 15661 ft | 345 kts | 263° |
| 2026-05-07 14:34 | 48.07987 | 15.90836 | 16421 ft | 349 kts | 262° |
| 2026-05-07 14:34 | 48.07769 | 15.87203 | 17197 ft | 353 kts | 262° |
| 2026-05-07 14:34 | 48.07546 | 15.83530 | 17936 ft | 356 kts | 262° |
| 2026-05-07 14:34 | 48.07319 | 15.79829 | 18634 ft | 360 kts | 262° |
| 2026-05-07 14:35 | 48.07090 | 15.76089 | 19321 ft | 362 kts | 261° |
| 2026-05-07 14:35 | 48.06858 | 15.72325 | 19992 ft | 366 kts | 261° |
| 2026-05-07 14:35 | 48.06622 | 15.68523 | 20685 ft | 368 kts | 261° |
| 2026-05-07 14:35 | 48.06385 | 15.64740 | 21323 ft | 372 kts | 260° |
| 2026-05-07 14:36 | 48.05910 | 15.60954 | 21996 ft | 371 kts | 251° |
| 2026-05-07 14:36 | 48.05192 | 15.57251 | 22663 ft | 372 kts | 249° |
| 2026-05-07 14:36 | 48.04419 | 15.53534 | 23293 ft | 376 kts | 249° |
| 2026-05-07 14:36 | 48.03655 | 15.49778 | 23882 ft | 379 kts | 249° |
| 2026-05-07 14:37 | 48.02911 | 15.45993 | 24464 ft | 382 kts | 250° |
| 2026-05-07 14:37 | 48.01448 | 15.38313 | 25556 ft | 386 kts | 250° |
| 2026-05-07 14:37 | 48.00726 | 15.34493 | 26057 ft | 389 kts | 250° |
| 2026-05-07 14:38 | 47.99595 | 15.28525 | 26868 ft | 391 kts | 250° |
| 2026-05-07 14:38 | 47.96582 | 15.12724 | 28776 ft | 400 kts | 249° |
| 2026-05-07 14:38 | 47.93487 | 14.96653 | 30006 ft | 410 kts | 249° |
| 2026-05-07 14:38 | 47.90292 | 14.80213 | 29980 ft | 412 kts | 249° |
| 2026-05-07 14:39 | 47.83847 | 14.47467 | 29992 ft | 416 kts | 250° |
| 2026-05-07 14:39 | 47.77234 | 14.14438 | 29988 ft | 417 kts | 250° |
| 2026-05-07 14:40 | 47.71191 | 13.84701 | 29999 ft | 423 kts | 250° |
| 2026-05-07 14:40 | 47.69483 | 13.76373 | 29999 ft | 422 kts | 250° |
| 2026-05-07 14:41 | 47.67766 | 13.68039 | 30001 ft | 422 kts | 250° |
| 2026-05-07 14:41 | 47.66044 | 13.59718 | 30000 ft | 422 kts | 250° |
| 2026-05-07 14:42 | 47.64326 | 13.51454 | 30020 ft | 420 kts | 250° |
| 2026-05-07 14:42 | 47.62608 | 13.43219 | 30013 ft | 420 kts | 250° |
| 2026-05-07 14:43 | 47.60878 | 13.34957 | 29977 ft | 420 kts | 250° |
| 2026-05-07 14:43 | 47.60010 | 13.30824 | 29577 ft | 420 kts | 251° |
| 2026-05-07 14:43 | 47.59137 | 13.26680 | 28700 ft | 423 kts | 251° |
| 2026-05-07 14:44 | 47.58262 | 13.22535 | 28107 ft | 418 kts | 251° |
| 2026-05-07 14:44 | 47.57416 | 13.18525 | 27623 ft | 410 kts | 251° |
| 2026-05-07 14:44 | 47.56569 | 13.14527 | 27059 ft | 404 kts | 251° |
| 2026-05-07 14:44 | 47.55734 | 13.10592 | 26503 ft | 398 kts | 251° |
| 2026-05-07 14:45 | 47.54907 | 13.06707 | 25946 ft | 394 kts | 251° |
| 2026-05-07 14:45 | 47.54086 | 13.02870 | 25398 ft | 389 kts | 252° |
| 2026-05-07 14:45 | 47.53271 | 12.99064 | 24843 ft | 386 kts | 252° |
| 2026-05-07 14:45 | 47.52465 | 12.95299 | 24287 ft | 382 kts | 252° |
| 2026-05-07 14:46 | 47.51664 | 12.91558 | 23708 ft | 380 kts | 252° |
| 2026-05-07 14:46 | 47.50879 | 12.87901 | 23163 ft | 376 kts | 252° |
| 2026-05-07 14:46 | 47.50093 | 12.84241 | 22595 ft | 371 kts | 252° |
| 2026-05-07 14:46 | 47.49315 | 12.80624 | 22078 ft | 367 kts | 252° |
| 2026-05-07 14:47 | 47.48544 | 12.77048 | 21546 ft | 363 kts | 252° |
| 2026-05-07 14:47 | 47.47780 | 12.73516 | 21016 ft | 359 kts | 252° |
| 2026-05-07 14:47 | 47.47022 | 12.70014 | 20485 ft | 356 kts | 252° |
| 2026-05-07 14:47 | 47.46268 | 12.66543 | 19962 ft | 354 kts | 252° |
| 2026-05-07 14:48 | 47.45519 | 12.63098 | 19439 ft | 351 kts | 252° |
| 2026-05-07 14:48 | 47.44784 | 12.59720 | 18921 ft | 349 kts | 252° |
| 2026-05-07 14:48 | 47.44042 | 12.56312 | 18400 ft | 347 kts | 252° |
| 2026-05-07 14:48 | 47.43301 | 12.52933 | 17840 ft | 345 kts | 252° |
| 2026-05-07 14:49 | 47.42564 | 12.49578 | 17312 ft | 341 kts | 252° |
| 2026-05-07 14:49 | 47.41837 | 12.46264 | 16806 ft | 338 kts | 252° |
| 2026-05-07 14:49 | 47.41117 | 12.42981 | 16300 ft | 335 kts | 252° |
| 2026-05-07 14:49 | 47.40411 | 12.39756 | 16089 ft | 323 kts | 252° |
| 2026-05-07 14:50 | 47.39798 | 12.36643 | 15966 ft | 309 kts | 258° |
| 2026-05-07 14:50 | 47.39553 | 12.33613 | 15754 ft | 300 kts | 268° |
| 2026-05-07 14:50 | 47.39657 | 12.30549 | 15367 ft | 298 kts | 277° |
| 2026-05-07 14:50 | 47.39958 | 12.27522 | 14922 ft | 298 kts | 277° |
| 2026-05-07 14:51 | 47.40252 | 12.24507 | 14528 ft | 296 kts | 277° |
| 2026-05-07 14:51 | 47.40539 | 12.21510 | 14151 ft | 294 kts | 277° |
| 2026-05-07 14:51 | 47.40822 | 12.18526 | 13740 ft | 293 kts | 277° |
| 2026-05-07 14:51 | 47.41101 | 12.15551 | 13253 ft | 292 kts | 277° |
| 2026-05-07 14:52 | 47.41379 | 12.12575 | 12781 ft | 293 kts | 277° |
| 2026-05-07 14:52 | 47.41655 | 12.09604 | 12313 ft | 292 kts | 277° |
| 2026-05-07 14:52 | 47.41925 | 12.06670 | 11854 ft | 292 kts | 277° |
| 2026-05-07 14:52 | 47.42201 | 12.03694 | 11393 ft | 293 kts | 277° |
| 2026-05-07 14:53 | 47.42475 | 12.00725 | 10927 ft | 288 kts | 277° |
| 2026-05-07 14:53 | 47.42726 | 11.97829 | 10491 ft | 280 kts | 273° |
| 2026-05-07 14:53 | 47.42457 | 11.95041 | 10046 ft | 273 kts | 249° |
| 2026-05-07 14:53 | 47.41440 | 11.92739 | 9648 ft | 266 kts | 224° |
| 2026-05-07 14:54 | 47.39963 | 11.91243 | 9514 ft | 249 kts | 212° |
| 2026-05-07 14:54 | 47.38477 | 11.89958 | 9507 ft | 252 kts | 212° |
| 2026-05-07 14:54 | 47.36967 | 11.88629 | 9506 ft | 252 kts | 212° |
| 2026-05-07 14:54 | 47.35492 | 11.87327 | 9506 ft | 249 kts | 212° |
| 2026-05-07 14:55 | 47.34007 | 11.86008 | 9499 ft | 244 kts | 212° |
| 2026-05-07 14:55 | 47.32639 | 11.84690 | 9479 ft | 225 kts | 226° |
| 2026-05-07 14:55 | 47.31887 | 11.82850 | 9483 ft | 202 kts | 259° |
| 2026-05-07 14:55 | 47.31804 | 11.80777 | 9493 ft | 207 kts | 271° |
| 2026-05-07 14:56 | 47.31833 | 11.78673 | 9467 ft | 204 kts | 270° |
| 2026-05-07 14:56 | 47.31771 | 11.76589 | 9217 ft | 205 kts | 265° |
| 2026-05-07 14:56 | 47.31598 | 11.74530 | 8942 ft | 200 kts | 262° |
| 2026-05-07 14:56 | 47.31364 | 11.72537 | 8525 ft | 200 kts | 260° |
| 2026-05-07 14:57 | 47.31094 | 11.70527 | 8120 ft | 200 kts | 259° |
| 2026-05-07 14:57 | 47.30807 | 11.68520 | 7716 ft | 200 kts | 259° |
| 2026-05-07 14:57 | 47.30520 | 11.66512 | 7313 ft | 200 kts | 259° |
| 2026-05-07 14:57 | 47.30236 | 11.64512 | 6924 ft | 200 kts | 259° |
| 2026-05-07 14:58 | 47.29950 | 11.62511 | 6516 ft | 200 kts | 259° |
| 2026-05-07 14:58 | 47.29664 | 11.60509 | 6119 ft | 200 kts | 259° |
| 2026-05-07 14:58 | 47.29375 | 11.58508 | 5711 ft | 200 kts | 259° |
| 2026-05-07 14:58 | 47.29092 | 11.56552 | 5513 ft | 189 kts | 259° |
| 2026-05-07 14:59 | 47.28829 | 11.54713 | 5499 ft | 189 kts | 258° |
| 2026-05-07 14:59 | 47.28557 | 11.52815 | 5386 ft | 190 kts | 258° |
| 2026-05-07 14:59 | 47.28282 | 11.50899 | 5102 ft | 193 kts | 258° |
| 2026-05-07 14:59 | 47.28007 | 11.48948 | 4678 ft | 196 kts | 258° |
| 2026-05-07 15:00 | 47.27717 | 11.46982 | 4256 ft | 197 kts | 251° |
| 2026-05-07 15:00 | 47.27043 | 11.45256 | 3859 ft | 194 kts | 234° |
| 2026-05-07 15:00 | 47.26281 | 11.43699 | 3706 ft | 179 kts | 234° |
| 2026-05-07 15:00 | 47.25530 | 11.42199 | 3701 ft | 184 kts | 234° |
| 2026-05-07 15:01 | 47.24783 | 11.40709 | 3704 ft | 184 kts | 234° |
| 2026-05-07 15:01 | 47.24023 | 11.39195 | 3699 ft | 183 kts | 234° |
| 2026-05-07 15:01 | 47.23307 | 11.37660 | 3674 ft | 182 kts | 247° |
| 2026-05-07 15:01 | 47.23093 | 11.35846 | 3674 ft | 181 kts | 268° |
| 2026-05-07 15:02 | 47.23034 | 11.34007 | 3670 ft | 178 kts | 271° |
| 2026-05-07 15:02 | 47.23086 | 11.32177 | 3674 ft | 180 kts | 274° |
| 2026-05-07 15:02 | 47.23091 | 11.30330 | 3669 ft | 181 kts | 268° |
| 2026-05-07 15:02 | 47.23027 | 11.28515 | 3668 ft | 172 kts | 268° |
| 2026-05-07 15:03 | 47.23014 | 11.26797 | 3666 ft | 170 kts | 282° |
| 2026-05-07 15:03 | 47.23621 | 11.25371 | 3677 ft | 169 kts | 326° |
| 2026-05-07 15:03 | 47.24691 | 11.24981 | 3677 ft | 155 kts | 11° |
| 2026-05-07 15:03 | 47.25553 | 11.25836 | 3677 ft | 157 kts | 58° |
| 2026-05-07 15:04 | 47.25770 | 11.27385 | 3630 ft | 157 kts | 93° |
| 2026-05-07 15:04 | 47.25546 | 11.28951 | 3180 ft | 155 kts | 96° |
| 2026-05-07 15:04 | 47.25656 | 11.30524 | 2679 ft | 155 kts | 81° |
| 2026-05-07 15:04 | 47.25742 | 11.32071 | 2284 ft | 147 kts | 83° |
| 2026-05-07 15:05 | 47.25930 | 11.33521 | 1921 ft | 139 kts | 81° |
| 2026-05-07 15:05 | 47.26043 | 11.34579 | 1902 ft | 58 kts | 78° |
| 2026-05-07 15:05 | 47.26094 | 11.35091 | 1897 ft | 33 kts | 80° |
| 2026-05-07 15:05 | 47.26063 | 11.35255 | 1899 ft | 15 kts | 158° |
| 2026-05-07 15:06 | 47.25961 | 11.35285 | 1894 ft | 0 kts | 176° |
| 2026-05-07 15:06 | 47.25936 | 11.35288 | 1899 ft | 8 kts | 175° |
| 2026-05-07 15:06 | 47.25899 | 11.35240 | 1899 ft | 7 kts | 255° |
| 2026-05-07 15:06 | 47.25881 | 11.35171 | 1887 ft | 6 kts | 223° |
| 2026-05-07 15:07 | 47.25849 | 11.35164 | 1895 ft | 3 kts | 175° |
| 2026-05-07 15:07 | 47.25838 | 11.35166 | 1897 ft | 0 kts | 173° |